createdAt,value
2023-05-10T00:00:56.574Z,199.02
2023-05-10T00:01:56.646Z,198.85
2023-05-10T00:02:56.673Z,200.00
2023-05-10T00:03:56.645Z,200.37
2023-05-10T00:04:56.626Z,199.76
2023-05-10T00:05:56.585Z,201.31
2023-05-10T00:06:56.598Z,199.46
2023-05-10T00:07:56.594Z,201.07
2023-05-10T00:08:56.601Z,201.17
2023-05-10T00:09:56.585Z,200.51
2023-05-10T00:10:56.580Z,201.30
2023-05-10T00:11:56.588Z,200.84
2023-05-10T00:12:56.604Z,200.47
2023-05-10T00:13:56.588Z,199.63
2023-05-10T00:14:56.599Z,201.67
2023-05-10T00:15:56.579Z,201.62
2023-05-10T00:16:56.690Z,201.37
2023-05-10T00:17:56.628Z,203.65
2023-05-10T00:18:56.589Z,205.57
2023-05-10T00:19:56.594Z,206.91
2023-05-10T00:20:56.575Z,208.64
2023-05-10T00:21:56.567Z,210.05
2023-05-10T00:22:56.554Z,209.09
2023-05-10T00:23:56.560Z,207.66
2023-05-10T00:24:56.566Z,208.27
2023-05-10T00:25:56.591Z,209.67
2023-05-10T00:26:56.587Z,210.58
2023-05-10T00:27:56.609Z,208.66
2023-05-10T00:28:56.602Z,209.74
2023-05-10T00:29:56.580Z,209.63
2023-05-10T00:30:56.611Z,208.32
2023-05-10T00:31:56.618Z,208.39
2023-05-10T00:32:56.593Z,208.85
2023-05-10T00:33:56.642Z,209.02
2023-05-10T00:34:56.569Z,209.38
2023-05-10T00:35:56.614Z,210.31
2023-05-10T00:36:56.594Z,209.37
2023-05-10T00:37:56.588Z,210.44
2023-05-10T00:38:56.620Z,208.91
2023-05-10T00:39:56.590Z,210.19
2023-05-10T00:40:56.595Z,211.91
2023-05-10T00:41:56.630Z,213.27
2023-05-10T00:42:56.596Z,213.47
2023-05-10T00:43:56.603Z,211.86
2023-05-10T00:44:56.590Z,212.15
2023-05-10T00:45:56.652Z,211.64
2023-05-10T00:46:56.575Z,212.97
2023-05-10T00:47:56.640Z,211.74
2023-05-10T00:48:56.612Z,212.12
2023-05-10T00:49:56.592Z,212.96
2023-05-10T00:50:56.612Z,212.72
2023-05-10T00:51:56.589Z,213.55
2023-05-10T00:52:56.597Z,212.50
2023-05-10T00:53:56.605Z,213.07
2023-05-10T00:54:56.599Z,212.16
2023-05-10T00:55:56.601Z,212.56
2023-05-10T00:56:56.605Z,213.11
2023-05-10T00:57:56.618Z,214.04
2023-05-10T00:58:56.593Z,215.69
2023-05-10T00:59:56.606Z,213.77
2023-05-10T01:00:56.603Z,214.52
2023-05-10T01:01:56.578Z,213.38
2023-05-10T01:02:56.696Z,212.61
2023-05-10T01:03:56.588Z,214.55
2023-05-10T01:04:56.602Z,213.83
2023-05-10T01:05:56.603Z,214.04
2023-05-10T01:06:56.601Z,213.68
2023-05-10T01:07:56.587Z,214.31
2023-05-10T01:08:56.578Z,215.58
2023-05-10T01:09:56.606Z,214.66
2023-05-10T01:10:56.594Z,214.41
2023-05-10T01:11:56.607Z,214.41
2023-05-10T01:12:56.607Z,215.85
2023-05-10T01:13:56.574Z,214.81
2023-05-10T01:14:56.574Z,215.25
2023-05-10T01:15:56.616Z,215.40
2023-05-10T01:16:56.567Z,215.60
2023-05-10T01:17:56.613Z,215.15
2023-05-10T01:18:56.561Z,215.70
2023-05-10T01:19:56.575Z,215.56
2023-05-10T01:20:56.571Z,216.96
2023-05-10T01:21:56.544Z,217.83
2023-05-10T01:22:56.576Z,218.76
2023-05-10T01:23:56.556Z,217.81
2023-05-10T01:24:56.589Z,218.55
2023-05-10T01:25:56.603Z,218.84
2023-05-10T01:26:56.561Z,218.96
2023-05-10T01:27:56.580Z,218.34
2023-05-10T01:28:56.546Z,218.34
2023-05-10T01:30:13.635Z,218.78
2023-05-10T01:30:57.611Z,218.89
2023-05-10T01:31:56.574Z,219.11
2023-05-10T01:32:56.630Z,219.43
2023-05-10T01:33:56.526Z,220.16
2023-05-10T01:34:56.532Z,220.54
2023-05-10T01:35:56.506Z,219.99
2023-05-10T01:36:56.525Z,220.07
2023-05-10T01:37:56.503Z,221.11
2023-05-10T01:38:56.507Z,221.16
2023-05-10T01:39:56.501Z,221.79
2023-05-10T01:40:56.471Z,222.28
2023-05-10T01:41:56.483Z,221.17
2023-05-10T01:42:56.465Z,223.14
2023-05-10T01:43:56.468Z,222.95
2023-05-10T01:44:56.478Z,221.18
2023-05-10T01:45:56.434Z,223.14
2023-05-10T01:46:56.514Z,223.04
2023-05-10T01:47:56.473Z,224.15
2023-05-10T01:48:56.464Z,224.00
2023-05-10T01:49:56.448Z,224.87
2023-05-10T01:50:56.430Z,224.47
2023-05-10T01:51:56.443Z,225.59
2023-05-10T01:52:56.410Z,226.27
2023-05-10T01:53:56.439Z,225.65
2023-05-10T01:54:56.412Z,227.13
2023-05-10T01:55:56.409Z,226.47
2023-05-10T01:56:56.385Z,227.30
2023-05-10T01:57:56.395Z,227.28
2023-05-10T01:58:56.400Z,227.53
2023-05-10T01:59:56.375Z,228.68
2023-05-10T02:00:56.405Z,229.92
2023-05-10T02:01:56.353Z,229.81
2023-05-10T02:02:56.380Z,228.76
2023-05-10T02:03:56.416Z,228.72
2023-05-10T02:04:56.313Z,229.43
2023-05-10T02:05:56.334Z,229.69
2023-05-10T02:06:56.344Z,231.12
2023-05-10T02:07:56.352Z,229.32
2023-05-10T02:08:56.289Z,229.70
2023-05-10T02:09:56.297Z,230.69
2023-05-10T02:10:56.297Z,230.03
2023-05-10T02:11:56.307Z,231.37
2023-05-10T02:12:56.319Z,230.81
2023-05-10T02:13:56.309Z,231.81
2023-05-10T02:14:56.292Z,231.88
2023-05-10T02:15:56.237Z,231.64
2023-05-10T02:16:56.268Z,232.18
2023-05-10T02:17:56.273Z,231.69
2023-05-10T02:18:56.276Z,231.85
2023-05-10T02:19:56.222Z,233.58
2023-05-10T02:20:56.257Z,232.90
2023-05-10T02:21:56.235Z,233.85
2023-05-10T02:22:56.211Z,232.56
2023-05-10T02:23:56.202Z,233.14
2023-05-10T02:24:56.198Z,232.85
2023-05-10T02:25:56.203Z,232.29
2023-05-10T02:26:56.238Z,232.82
2023-05-10T02:27:56.203Z,233.69
2023-05-10T02:28:56.204Z,233.30
2023-05-10T02:29:56.171Z,232.97
2023-05-10T02:30:56.142Z,232.98
2023-05-10T02:31:56.292Z,232.47
2023-05-10T02:32:56.168Z,232.67
2023-05-10T02:33:56.156Z,232.68
2023-05-10T02:34:56.159Z,233.51
2023-05-10T02:35:56.145Z,232.68
2023-05-10T02:36:56.144Z,233.24
2023-05-10T02:37:56.143Z,233.17
2023-05-10T02:38:56.157Z,230.92
2023-05-10T02:39:56.140Z,232.21
2023-05-10T02:40:56.109Z,232.02
2023-05-10T02:41:56.091Z,231.99
2023-05-10T02:42:56.125Z,230.93
2023-05-10T02:43:56.106Z,231.85
2023-05-10T02:44:56.093Z,231.58
2023-05-10T02:45:56.172Z,230.40
2023-05-10T02:46:56.100Z,230.90
2023-05-10T02:47:56.084Z,229.36
2023-05-10T02:48:56.066Z,228.39
2023-05-10T02:49:56.049Z,229.29
2023-05-10T02:50:56.032Z,227.61
2023-05-10T02:51:56.036Z,229.04
2023-05-10T02:52:56.044Z,229.29
2023-05-10T02:53:56.013Z,229.41
2023-05-10T02:54:56.020Z,229.23
2023-05-10T02:55:56.008Z,230.01
2023-05-10T02:56:56.016Z,232.09
2023-05-10T02:57:55.981Z,229.17
2023-05-10T02:58:55.982Z,229.80
2023-05-10T02:59:55.984Z,230.07
2023-05-10T03:00:55.991Z,228.53
2023-05-10T03:01:55.986Z,228.49
2023-05-10T03:02:56.043Z,228.68
2023-05-10T03:03:55.952Z,228.55
2023-05-10T03:04:56.011Z,229.11
2023-05-10T03:05:55.950Z,229.41
2023-05-10T03:06:55.956Z,229.34
2023-05-10T03:07:55.967Z,229.37
2023-05-10T03:08:55.959Z,228.29
2023-05-10T03:09:55.943Z,229.75
2023-05-10T03:10:55.959Z,229.15
2023-05-10T03:11:55.962Z,229.11
2023-05-10T03:12:55.999Z,229.53
2023-05-10T03:13:56.651Z,229.93
2023-05-10T03:14:55.943Z,229.22
2023-05-10T03:15:55.946Z,228.55
2023-05-10T03:16:55.934Z,228.49
2023-05-10T03:17:55.962Z,229.91
2023-05-10T03:18:55.920Z,230.45
2023-05-10T03:19:55.973Z,230.45
2023-05-10T03:20:55.968Z,229.48
2023-05-10T03:21:55.928Z,230.42
2023-05-10T03:22:55.980Z,230.39
2023-05-10T03:23:55.959Z,230.60
2023-05-10T03:24:55.930Z,229.76
2023-05-10T03:25:55.956Z,229.64
2023-05-10T03:26:55.929Z,230.13
2023-05-10T03:27:55.915Z,229.56
2023-05-10T03:28:55.981Z,230.88
2023-05-10T03:29:55.950Z,230.40
2023-05-10T03:30:55.929Z,230.89
2023-05-10T03:31:55.993Z,231.69
2023-05-10T03:32:55.956Z,230.90
2023-05-10T03:33:55.944Z,231.82
2023-05-10T03:34:55.921Z,230.20
2023-05-10T03:35:55.916Z,231.90
2023-05-10T03:36:55.913Z,231.59
2023-05-10T03:37:55.877Z,232.13
2023-05-10T03:38:55.881Z,231.40
2023-05-10T03:39:55.908Z,232.63
2023-05-10T03:40:55.872Z,232.44
2023-05-10T03:41:55.871Z,233.43
2023-05-10T03:42:55.883Z,231.77
2023-05-10T03:43:55.938Z,230.18
2023-05-10T03:44:55.885Z,230.41
2023-05-10T03:45:55.895Z,230.86
2023-05-10T03:46:55.903Z,231.67
2023-05-10T03:47:55.883Z,230.49
2023-05-10T03:48:55.857Z,231.67
2023-05-10T03:49:55.852Z,231.44
2023-05-10T03:50:55.891Z,230.79
2023-05-10T03:51:55.845Z,232.61
2023-05-10T03:52:55.867Z,232.10
2023-05-10T03:53:55.865Z,230.71
2023-05-10T03:54:55.865Z,230.56
2023-05-10T03:55:55.863Z,232.22
2023-05-10T03:56:55.866Z,231.38
2023-05-10T03:57:55.827Z,230.62
2023-05-10T03:58:55.840Z,231.07
2023-05-10T03:59:55.857Z,229.01
2023-05-10T04:00:55.814Z,228.87
2023-05-10T04:01:55.858Z,229.98
2023-05-10T04:02:55.886Z,230.48
2023-05-10T04:03:55.852Z,229.54
2023-05-10T04:04:55.845Z,229.57
2023-05-10T04:05:55.854Z,229.33
2023-05-10T04:06:55.833Z,229.41
2023-05-10T04:07:55.841Z,230.04
2023-05-10T04:08:55.831Z,230.57
2023-05-10T04:09:55.869Z,230.94
2023-05-10T04:10:55.831Z,230.66
2023-05-10T04:11:55.860Z,230.65
2023-05-10T04:12:55.851Z,230.06
2023-05-10T04:13:55.804Z,230.07
2023-05-10T04:14:55.846Z,229.75
2023-05-10T04:15:55.863Z,228.13
2023-05-10T04:16:55.870Z,228.89
2023-05-10T04:17:55.877Z,228.53
2023-05-10T04:18:55.802Z,228.87
2023-05-10T04:19:55.846Z,228.14
2023-05-10T04:20:56.169Z,227.04
2023-05-10T04:21:56.241Z,229.13
2023-05-10T04:22:55.922Z,227.81
2023-05-10T04:23:55.956Z,227.82
2023-05-10T04:24:56.033Z,229.01
2023-05-10T04:25:56.064Z,228.30
2023-05-10T04:26:57.765Z,228.45
2023-05-10T04:27:56.160Z,226.93
2023-05-10T04:28:56.145Z,228.13
2023-05-10T04:29:56.185Z,229.34
2023-05-10T04:30:56.161Z,228.92
2023-05-10T04:31:56.143Z,227.18
2023-05-10T04:32:56.202Z,227.35
2023-05-10T04:33:56.156Z,227.63
2023-05-10T04:34:56.127Z,227.15
2023-05-10T04:35:56.115Z,228.07
2023-05-10T04:36:56.104Z,227.98
2023-05-10T04:37:56.136Z,227.73
2023-05-10T04:38:56.145Z,227.03
2023-05-10T04:39:56.125Z,226.64
2023-05-10T04:40:56.141Z,226.45
2023-05-10T04:41:56.118Z,226.45
2023-05-10T04:42:56.147Z,225.47
2023-05-10T04:43:56.110Z,224.66
2023-05-10T04:44:56.105Z,225.07
2023-05-10T04:45:56.097Z,224.37
2023-05-10T04:46:56.101Z,222.52
2023-05-10T04:47:56.165Z,223.09
2023-05-10T04:48:56.112Z,223.06
2023-05-10T04:49:56.125Z,224.91
2023-05-10T04:50:56.092Z,224.77
2023-05-10T04:51:56.098Z,224.91
2023-05-10T04:52:56.107Z,225.32
2023-05-10T04:54:05.286Z,225.21
2023-05-10T04:54:57.089Z,225.34
2023-05-10T04:55:56.079Z,225.51
2023-05-10T04:56:56.063Z,225.34
2023-05-10T04:57:56.092Z,225.22
2023-05-10T04:58:56.077Z,225.52
2023-05-10T04:59:56.038Z,225.16
2023-05-10T05:01:03.018Z,225.62
2023-05-10T05:01:56.150Z,225.82
2023-05-10T05:02:56.114Z,226.16
2023-05-10T05:03:56.167Z,226.43
2023-05-10T05:04:56.016Z,227.01
2023-05-10T05:05:56.001Z,228.18
2023-05-10T05:06:55.972Z,228.95
2023-05-10T05:07:55.974Z,229.73
2023-05-10T05:08:55.996Z,228.23
2023-05-10T05:09:56.007Z,230.21
2023-05-10T05:10:55.980Z,229.79
2023-05-10T05:11:55.970Z,228.10
2023-05-10T05:12:55.972Z,228.68
2023-05-10T05:13:55.956Z,228.94
2023-05-10T05:14:55.925Z,228.60
2023-05-10T05:15:55.946Z,226.75
2023-05-10T05:16:55.933Z,227.90
2023-05-10T05:17:56.041Z,228.18
2023-05-10T05:18:55.915Z,228.05
2023-05-10T05:19:55.900Z,226.32
2023-05-10T05:20:55.908Z,221.35
2023-05-10T05:21:55.893Z,206.43
2023-05-10T05:22:55.878Z,197.65
2023-05-10T05:23:55.863Z,194.67
2023-05-10T05:24:55.889Z,192.63
2023-05-10T05:25:55.865Z,189.17
2023-05-10T05:26:55.884Z,188.53
2023-05-10T05:27:55.842Z,190.50
2023-05-10T05:28:55.834Z,188.56
2023-05-10T05:29:55.837Z,189.19
2023-05-10T05:30:55.847Z,193.92
2023-05-10T05:31:55.951Z,197.86
2023-05-10T05:32:55.852Z,201.57
2023-05-10T05:33:56.207Z,205.47
2023-05-10T05:34:55.803Z,209.82
2023-05-10T05:35:55.796Z,210.77
2023-05-10T05:36:55.767Z,213.40
2023-05-10T05:37:55.770Z,212.73
2023-05-10T05:38:56.227Z,222.23
2023-05-10T05:39:55.755Z,243.95
2023-05-10T05:40:55.792Z,250.00
2023-05-10T05:41:55.750Z,250.82
2023-05-10T05:42:55.771Z,247.34
2023-05-10T05:43:56.209Z,249.87
2023-05-10T05:44:55.738Z,250.00
2023-05-10T05:46:02.784Z,248.03
2023-05-10T05:46:55.746Z,248.19
2023-05-10T05:47:55.832Z,248.87
2023-05-10T05:48:55.750Z,250.76
2023-05-10T05:49:55.718Z,254.06
2023-05-10T05:50:55.693Z,259.29
2023-05-10T05:51:55.681Z,252.46
2023-05-10T05:52:55.711Z,249.06
2023-05-10T05:53:55.752Z,249.87
2023-05-10T05:54:55.667Z,249.92
2023-05-10T05:55:55.688Z,248.98
2023-05-10T05:56:55.670Z,248.31
2023-05-10T05:57:55.631Z,249.44
2023-05-10T05:58:55.638Z,250.00
2023-05-10T05:59:55.613Z,249.60
2023-05-10T06:00:55.624Z,249.90
2023-05-10T06:01:55.730Z,250.00
2023-05-10T06:02:55.678Z,246.64
2023-05-10T06:03:55.711Z,244.65
2023-05-10T06:04:55.635Z,243.39
2023-05-10T06:05:55.597Z,245.61
2023-05-10T06:06:55.606Z,249.93
2023-05-10T06:07:55.577Z,249.11
2023-05-10T06:08:55.577Z,247.94
2023-05-10T06:09:55.567Z,248.60
2023-05-10T06:10:55.562Z,249.29
2023-05-10T06:11:55.548Z,249.64
2023-05-10T06:12:55.616Z,249.10
2023-05-10T06:13:55.562Z,249.80
2023-05-10T06:14:55.542Z,249.91
2023-05-10T06:15:55.520Z,249.62
2023-05-10T06:16:55.617Z,250.00
2023-05-10T06:17:56.210Z,248.65
2023-05-10T06:18:55.508Z,249.12
2023-05-10T06:19:55.616Z,250.00
2023-05-10T06:20:55.569Z,250.00
2023-05-10T06:21:55.601Z,249.47
2023-05-10T06:22:55.640Z,250.14
2023-05-10T06:23:55.680Z,250.00
2023-05-10T06:24:55.712Z,249.31
2023-05-10T06:25:55.729Z,249.76
2023-05-10T06:26:55.775Z,249.82
2023-05-10T06:27:55.792Z,249.52
2023-05-10T06:28:55.814Z,250.28
2023-05-10T06:30:02.068Z,250.00
2023-05-10T06:30:56.813Z,250.12
2023-05-10T06:31:55.966Z,250.50
2023-05-10T06:32:55.845Z,250.90
2023-05-10T06:33:56.739Z,251.34
2023-05-10T06:34:55.833Z,253.07
2023-05-10T06:35:55.820Z,249.57
2023-05-10T06:36:55.885Z,249.97
2023-05-10T06:37:55.898Z,242.88
2023-05-10T06:38:55.927Z,226.67
2023-05-10T06:39:56.007Z,217.30
2023-05-10T06:40:55.975Z,212.10
2023-05-10T06:41:55.991Z,215.78
2023-05-10T06:42:56.022Z,223.10
2023-05-10T06:43:55.980Z,229.09
2023-05-10T06:44:55.997Z,231.18
2023-05-10T06:45:56.050Z,232.39
2023-05-10T06:46:56.123Z,233.85
2023-05-10T06:47:56.191Z,233.67
2023-05-10T06:48:56.223Z,235.84
2023-05-10T06:49:56.781Z,235.92
2023-05-10T06:50:56.314Z,236.55
2023-05-10T06:51:56.330Z,236.73
2023-05-10T06:52:56.401Z,238.01
2023-05-10T06:53:56.456Z,239.13
2023-05-10T06:54:56.469Z,239.21
2023-05-10T06:55:56.493Z,239.77
2023-05-10T06:56:56.983Z,240.62
2023-05-10T06:57:56.732Z,241.31
2023-05-10T06:58:56.595Z,242.73
2023-05-10T06:59:56.586Z,242.91
2023-05-10T07:00:56.603Z,243.15
2023-05-10T07:01:56.597Z,244.32
2023-05-10T07:02:56.693Z,246.51
2023-05-10T07:03:56.625Z,247.01
2023-05-10T07:04:56.807Z,248.38
2023-05-10T07:05:56.706Z,249.87
2023-05-10T07:06:56.752Z,249.44
2023-05-10T07:07:56.758Z,249.59
2023-05-10T07:08:56.792Z,248.80
2023-05-10T07:09:56.792Z,248.25
2023-05-10T07:10:56.818Z,247.74
2023-05-10T07:11:56.805Z,247.95
2023-05-10T07:12:56.945Z,247.08
2023-05-10T07:13:57.081Z,247.05
2023-05-10T07:14:57.285Z,246.82
2023-05-10T07:15:56.949Z,231.55
2023-05-10T07:16:56.979Z,219.14
2023-05-10T07:17:57.092Z,210.89
2023-05-10T07:18:57.081Z,206.75
2023-05-10T07:19:57.115Z,204.27
2023-05-10T07:20:57.143Z,202.70
2023-05-10T07:21:57.123Z,196.56
2023-05-10T07:22:57.109Z,192.66
2023-05-10T07:23:57.148Z,189.95
2023-05-10T07:24:57.210Z,189.05
2023-05-10T07:25:57.242Z,188.10
2023-05-10T07:26:57.251Z,186.28
2023-05-10T07:27:57.241Z,184.97
2023-05-10T07:28:57.303Z,181.16
2023-05-10T07:29:57.343Z,179.96
2023-05-10T07:30:57.434Z,176.76
2023-05-10T07:31:58.828Z,180.25
2023-05-10T07:32:57.431Z,179.36
2023-05-10T07:33:57.449Z,179.43
2023-05-10T07:34:57.531Z,178.28
2023-05-10T07:35:57.554Z,178.56
2023-05-10T07:36:57.662Z,183.57
2023-05-10T07:37:57.718Z,183.74
2023-05-10T07:38:57.765Z,180.17
2023-05-10T07:39:57.851Z,177.34
2023-05-10T07:40:57.872Z,176.42
2023-05-10T07:41:57.982Z,177.58
2023-05-10T07:42:57.958Z,173.40
2023-05-10T07:43:58.006Z,176.09
2023-05-10T07:44:58.099Z,175.99
2023-05-10T07:45:58.123Z,172.26
2023-05-10T07:46:58.040Z,168.43
2023-05-10T07:47:58.087Z,169.82
2023-05-10T07:48:58.111Z,167.39
2023-05-10T07:49:58.162Z,165.62
2023-05-10T07:50:58.227Z,168.93
2023-05-10T07:51:58.251Z,171.53
2023-05-10T07:52:58.290Z,171.68
2023-05-10T07:53:58.387Z,173.61
2023-05-10T07:54:58.394Z,173.61
2023-05-10T07:55:58.393Z,175.48
2023-05-10T07:56:58.473Z,175.97
2023-05-10T07:57:58.475Z,177.04
2023-05-10T07:58:58.483Z,177.66
2023-05-10T07:59:58.801Z,178.21
2023-05-10T08:00:58.492Z,177.10
2023-05-10T08:01:58.545Z,178.18
2023-05-10T08:02:58.653Z,177.94
2023-05-10T08:03:58.628Z,177.27
2023-05-10T08:04:58.574Z,177.78
2023-05-10T08:05:58.562Z,178.62
2023-05-10T08:06:58.564Z,179.71
2023-05-10T08:07:58.562Z,180.14
2023-05-10T08:08:58.641Z,179.94
2023-05-10T08:09:58.613Z,179.74
2023-05-10T08:10:58.612Z,180.05
2023-05-10T08:11:58.591Z,180.17
2023-05-10T08:12:58.611Z,180.65
2023-05-10T08:13:58.633Z,180.24
2023-05-10T08:14:58.621Z,180.79
2023-05-10T08:15:58.667Z,181.27
2023-05-10T08:16:58.597Z,181.01
2023-05-10T08:17:58.667Z,181.29
2023-05-10T08:18:58.640Z,181.12
2023-05-10T08:19:58.589Z,182.51
2023-05-10T08:20:58.632Z,182.55
2023-05-10T08:21:59.320Z,182.23
2023-05-10T08:22:58.581Z,182.89
2023-05-10T08:23:58.572Z,182.66
2023-05-10T08:24:58.574Z,182.30
2023-05-10T08:25:58.595Z,182.64
2023-05-10T08:26:58.613Z,183.19
2023-05-10T08:27:58.563Z,182.83
2023-05-10T08:28:58.578Z,182.12
2023-05-10T08:29:58.679Z,183.00
2023-05-10T08:30:58.837Z,183.13
2023-05-10T08:31:58.554Z,183.84
2023-05-10T08:32:58.680Z,183.30
2023-05-10T08:33:58.666Z,183.52
2023-05-10T08:34:58.596Z,183.97
2023-05-10T08:35:58.844Z,183.44
2023-05-10T08:36:58.587Z,183.13
2023-05-10T08:37:58.621Z,182.31
2023-05-10T08:38:58.606Z,180.64
2023-05-10T08:39:58.589Z,182.58
2023-05-10T08:40:58.849Z,183.17
2023-05-10T08:41:58.607Z,182.05
2023-05-10T08:42:58.628Z,181.97
2023-05-10T08:43:58.585Z,181.67
2023-05-10T08:44:58.586Z,181.79
2023-05-10T08:45:58.618Z,180.86
2023-05-10T08:46:58.677Z,181.09
2023-05-10T08:47:58.614Z,181.79
2023-05-10T08:48:58.560Z,180.25
2023-05-10T08:49:58.549Z,178.90
2023-05-10T08:50:58.810Z,179.33
2023-05-10T08:51:58.595Z,177.91
2023-05-10T08:52:58.604Z,178.87
2023-05-10T08:53:58.625Z,178.66
2023-05-10T08:54:58.583Z,178.68
2023-05-10T08:55:58.611Z,178.22
2023-05-10T08:56:58.588Z,176.85
2023-05-10T08:57:58.561Z,176.73
2023-05-10T08:58:58.589Z,176.14
2023-05-10T08:59:58.595Z,177.37
2023-05-10T09:00:58.850Z,176.80
2023-05-10T09:01:58.576Z,177.62
2023-05-10T09:02:58.605Z,176.24
2023-05-10T09:03:58.682Z,175.16
2023-05-10T09:04:58.732Z,174.59
2023-05-10T09:05:58.833Z,174.25
2023-05-10T09:06:58.578Z,174.45
2023-05-10T09:07:58.608Z,175.23
2023-05-10T09:08:58.552Z,173.85
2023-05-10T09:09:58.578Z,175.63
2023-05-10T09:10:58.840Z,175.38
2023-05-10T09:11:58.623Z,173.95
2023-05-10T09:12:59.402Z,173.56
2023-05-10T09:13:58.542Z,173.34
2023-05-10T09:14:58.602Z,173.09
2023-05-10T09:16:02.260Z,172.68
2023-05-10T09:16:59.651Z,172.70
2023-05-10T09:17:58.585Z,170.50
2023-05-10T09:18:58.614Z,169.55
2023-05-10T09:19:58.527Z,167.71
2023-05-10T09:20:58.546Z,168.93
2023-05-10T09:21:58.542Z,167.77
2023-05-10T09:22:58.497Z,166.15
2023-05-10T09:23:58.521Z,167.46
2023-05-10T09:24:58.484Z,165.90
2023-05-10T09:25:58.491Z,166.62
2023-05-10T09:26:58.520Z,167.28
2023-05-10T09:27:58.477Z,165.41
2023-05-10T09:28:58.520Z,165.19
2023-05-10T09:29:58.459Z,164.83
2023-05-10T09:30:58.895Z,164.47
2023-05-10T09:31:58.472Z,165.00
2023-05-10T09:32:58.529Z,165.93
2023-05-10T09:33:58.450Z,166.54
2023-05-10T09:34:58.486Z,175.44
2023-05-10T09:35:58.482Z,154.66
2023-05-10T09:36:58.426Z,160.09
2023-05-10T09:37:58.443Z,158.33
2023-05-10T09:38:58.464Z,153.94
2023-05-10T09:39:58.476Z,148.24
2023-05-10T09:40:58.833Z,148.93
2023-05-10T09:41:58.519Z,147.98
2023-05-10T09:42:58.520Z,149.28
2023-05-10T09:43:58.594Z,155.68
2023-05-10T09:44:58.543Z,157.74
2023-05-10T09:45:58.869Z,170.32
2023-05-10T09:46:58.615Z,175.92
2023-05-10T09:47:58.690Z,183.61
2023-05-10T09:48:58.732Z,189.64
2023-05-10T09:49:58.752Z,195.81
2023-05-10T09:50:58.822Z,201.53
2023-05-10T09:51:58.791Z,206.45
2023-05-10T09:52:58.800Z,212.37
2023-05-10T09:53:58.851Z,216.09
2023-05-10T09:54:58.792Z,224.42
2023-05-10T09:55:58.850Z,227.94
2023-05-10T09:56:58.919Z,231.16
2023-05-10T09:57:58.970Z,233.66
2023-05-10T09:58:59.004Z,236.79
2023-05-10T09:59:59.058Z,239.32
2023-05-10T10:00:59.368Z,242.49
2023-05-10T10:01:59.298Z,244.80
2023-05-10T10:02:59.225Z,245.62
2023-05-10T10:03:59.178Z,248.38
2023-05-10T10:04:59.249Z,250.00
2023-05-10T10:05:59.256Z,249.72
2023-05-10T10:06:59.217Z,249.75
2023-05-10T10:07:59.268Z,249.49
2023-05-10T10:08:59.239Z,249.96
2023-05-10T10:09:59.268Z,249.68
2023-05-10T10:10:59.275Z,249.77
2023-05-10T10:11:59.281Z,249.61
2023-05-10T10:12:59.312Z,249.35
2023-05-10T10:13:59.316Z,250.22
2023-05-10T10:14:59.324Z,250.61
2023-05-10T10:15:59.413Z,253.06
2023-05-10T10:17:08.358Z,250.00
2023-05-10T10:18:00.410Z,250.14
2023-05-10T10:18:59.414Z,250.90
2023-05-10T10:19:59.304Z,252.49
2023-05-10T10:20:59.303Z,254.00
2023-05-10T10:21:59.320Z,257.16
2023-05-10T10:22:59.281Z,249.92
2023-05-10T10:23:59.266Z,249.72
2023-05-10T10:24:59.281Z,249.88
2023-05-10T10:25:59.250Z,249.77
2023-05-10T10:26:59.361Z,249.39
2023-05-10T10:27:59.247Z,249.17
2023-05-10T10:28:59.244Z,249.09
2023-05-10T10:29:59.247Z,248.74
2023-05-10T10:30:59.284Z,247.28
2023-05-10T10:31:59.292Z,244.18
2023-05-10T10:32:59.297Z,221.78
2023-05-10T10:33:59.192Z,219.14
2023-05-10T10:34:59.201Z,211.16
2023-05-10T10:35:59.162Z,201.91
2023-05-10T10:36:59.384Z,190.21
2023-05-10T10:37:59.187Z,163.12
2023-05-10T10:38:59.159Z,147.07
2023-05-10T10:39:59.356Z,135.75
2023-05-10T10:40:59.199Z,124.62
2023-05-10T10:41:59.402Z,113.15
2023-05-10T10:42:59.265Z,109.35
2023-05-10T10:43:59.279Z,110.02
2023-05-10T10:44:59.339Z,105.02
2023-05-10T10:45:59.371Z,103.40
2023-05-10T10:46:59.516Z,98.92
2023-05-10T10:47:59.501Z,96.75
2023-05-10T10:48:59.504Z,95.29
2023-05-10T10:49:59.472Z,93.55
2023-05-10T10:50:59.429Z,89.14
2023-05-10T10:51:59.463Z,88.31
2023-05-10T10:52:59.534Z,85.33
2023-05-10T10:53:59.522Z,79.92
2023-05-10T10:54:59.540Z,79.52
2023-05-10T10:55:59.616Z,79.21
2023-05-10T10:56:59.563Z,79.36
2023-05-10T10:57:59.606Z,78.55
2023-05-10T10:58:59.605Z,78.49
2023-05-10T10:59:59.656Z,75.36
2023-05-10T11:00:59.715Z,72.17
2023-05-10T11:01:59.733Z,71.04
2023-05-10T11:02:59.802Z,66.92
2023-05-10T11:03:59.793Z,65.70
2023-05-10T11:04:59.810Z,68.23
2023-05-10T11:05:59.808Z,71.00
2023-05-10T11:07:00.819Z,71.09
2023-05-10T11:07:59.799Z,71.26
2023-05-10T11:08:59.786Z,71.14
2023-05-10T11:09:59.817Z,71.01
2023-05-10T11:10:59.786Z,68.37
2023-05-10T11:11:59.833Z,62.30
2023-05-10T11:12:59.767Z,62.80
2023-05-10T11:13:59.823Z,53.45
2023-05-10T11:14:59.843Z,52.16
2023-05-10T11:15:59.740Z,54.91
2023-05-10T11:17:00.523Z,53.63
2023-05-10T11:17:59.808Z,53.07
2023-05-10T11:18:59.775Z,59.28
2023-05-10T11:19:59.696Z,61.98
2023-05-10T11:20:59.757Z,64.03
2023-05-10T11:21:59.716Z,63.55
2023-05-10T11:22:59.714Z,60.33
2023-05-10T11:23:59.761Z,55.55
2023-05-10T11:24:59.839Z,56.86
2023-05-10T11:25:59.782Z,58.76
2023-05-10T11:26:59.799Z,63.95
2023-05-10T11:27:59.945Z,81.02
2023-05-10T11:29:00.206Z,88.40
2023-05-10T11:30:00.390Z,94.13
2023-05-10T11:30:59.939Z,94.95
2023-05-10T11:32:00.008Z,95.05
2023-05-10T11:33:00.593Z,96.24
2023-05-10T11:34:00.007Z,96.37
2023-05-10T11:35:00.042Z,100.11
2023-05-10T11:36:00.049Z,100.46
2023-05-10T11:37:00.120Z,104.19
2023-05-10T11:38:00.461Z,104.65
2023-05-10T11:39:00.086Z,104.64
2023-05-10T11:40:00.033Z,100.94
2023-05-10T11:41:00.032Z,101.68
2023-05-10T11:42:00.015Z,101.64
2023-05-10T11:43:00.051Z,104.06
2023-05-10T11:44:00.024Z,103.71
2023-05-10T11:44:59.984Z,102.77
2023-05-10T11:46:00.068Z,103.45
2023-05-10T11:47:00.003Z,104.48
2023-05-10T11:48:00.094Z,107.05
2023-05-10T11:49:00.052Z,109.93
2023-05-10T11:50:00.125Z,108.24
2023-05-10T11:51:00.175Z,108.59
2023-05-10T11:52:00.173Z,108.11
2023-05-10T11:53:00.238Z,107.18
2023-05-10T11:54:00.250Z,104.74
2023-05-10T11:55:00.316Z,105.97
2023-05-10T11:56:00.401Z,101.54
2023-05-10T11:57:00.391Z,98.68
2023-05-10T11:58:00.467Z,95.50
2023-05-10T11:59:00.500Z,92.41
2023-05-10T12:00:00.560Z,88.87
2023-05-10T12:01:00.648Z,87.05
2023-05-10T12:02:00.660Z,86.11
2023-05-10T12:03:00.831Z,84.36
2023-05-10T12:04:01.059Z,84.23
2023-05-10T12:05:00.921Z,85.23
2023-05-10T12:06:00.882Z,85.18
2023-05-10T12:07:00.918Z,83.25
2023-05-10T12:08:00.973Z,86.13
2023-05-10T12:09:01.013Z,87.70
2023-05-10T12:10:01.093Z,91.15
2023-05-10T12:11:01.084Z,96.68
2023-05-10T12:12:01.130Z,98.99
2023-05-10T12:13:01.161Z,99.55
2023-05-10T12:14:01.131Z,101.17
2023-05-10T12:15:01.132Z,99.21
2023-05-10T12:16:01.210Z,96.57
2023-05-10T12:17:01.169Z,94.17
2023-05-10T12:18:01.224Z,109.95
2023-05-10T12:19:01.205Z,118.22
2023-05-10T12:20:01.213Z,126.36
2023-05-10T12:21:01.267Z,132.79
2023-05-10T12:22:01.293Z,136.47
2023-05-10T12:23:01.327Z,141.11
2023-05-10T12:24:01.377Z,144.21
2023-05-10T12:25:01.358Z,148.64
2023-05-10T12:26:01.375Z,156.72
2023-05-10T12:27:01.354Z,164.09
2023-05-10T12:28:01.396Z,163.88
2023-05-10T12:29:01.380Z,164.32
2023-05-10T12:30:01.460Z,166.21
2023-05-10T12:31:01.514Z,165.52